Time;durP1;ratioP1;P1;durP2;ratioP2;P2;SDS_P1;SDS_P2;PMS_P1;PMS_P2;Temp;Humidity;BMP_temperature;BMP_pressure;BME280_temperature;BME280_humidity;BME280_pressure;Samples;Min_cycle;Max_cycle;Signal;HPM_P1;HPM_P2
2022/11/22 00:02:22;;;;;;;3.58;1.20;;;16.90;44.10;;;;;;5057315;28;20360;-56
2022/11/22 00:04:48;;;;;;;3.97;1.50;;;16.90;44.10;;;;;;5057101;28;20044;-59
2022/11/22 00:07:14;;;;;;;3.00;1.27;;;16.90;44.10;;;;;;5057068;28;20041;-58
2022/11/22 00:09:39;;;;;;;3.03;1.00;;;16.90;44.10;;;;;;5057128;28;20033;-57
2022/11/22 00:12:05;;;;;;;4.35;1.23;;;16.90;44.10;;;;;;5056787;28;20029;-57
2022/11/22 00:14:31;;;;;;;3.95;1.80;;;16.90;44.10;;;;;;5039060;28;20409;-57
2022/11/22 00:16:57;;;;;;;3.13;1.40;;;16.90;44.10;;;;;;5039017;28;20029;-58
2022/11/22 00:19:23;;;;;;;4.97;1.40;;;16.90;44.10;;;;;;5056984;28;20444;-58
2022/11/22 00:21:48;;;;;;;5.38;1.27;;;16.90;44.10;;;;;;5038923;28;20120;-56
2022/11/22 00:24:14;;;;;;;3.83;1.50;;;16.90;44.20;;;;;;5056212;28;20091;-57
2022/11/22 00:26:40;;;;;;;4.32;1.30;;;16.90;44.20;;;;;;5056637;28;20098;-55
2022/11/22 00:29:06;;;;;;;3.50;1.48;;;16.90;44.30;;;;;;5038693;28;20080;-57
2022/11/22 00:31:32;;;;;;;3.22;1.38;;;16.90;44.30;;;;;;5056524;28;20025;-56
2022/11/22 00:33:58;;;;;;;3.33;1.55;;;16.90;44.30;;;;;;5038840;28;20357;-57
2022/11/22 00:36:24;;;;;;;3.30;1.20;;;16.90;44.30;;;;;;5056622;28;20037;-57
2022/11/22 00:38:50;;;;;;;3.45;1.10;;;16.90;44.30;;;;;;5056790;28;20029;-57
2022/11/22 00:41:15;;;;;;;3.60;1.40;;;16.90;44.30;;;;;;5055861;28;20036;-56
2022/11/22 00:43:41;;;;;;;4.70;1.80;;;16.90;44.40;;;;;;5039045;28;20079;-57
2022/11/22 00:46:07;;;;;;;2.85;1.48;;;16.90;44.40;;;;;;5038578;28;20337;-59
2022/11/22 00:48:33;;;;;;;2.78;1.27;;;16.90;45.00;;;;;;5055962;28;20372;-54
2022/11/22 00:50:58;;;;;;;4.07;1.25;;;16.90;44.40;;;;;;5056233;28;20021;-55
2022/11/22 00:53:24;;;;;;;3.50;1.77;;;16.90;44.40;;;;;;5056087;28;20033;-59
2022/11/22 00:55:50;;;;;;;3.25;1.50;;;16.90;44.40;;;;;;5055562;28;20032;-58
2022/11/22 00:58:16;;;;;;;2.50;1.23;;;16.90;44.50;;;;;;5056424;28;20091;-58
2022/11/22 01:00:42;;;;;;;5.25;1.55;;;16.90;44.50;;;;;;5056263;28;20419;-56
2022/11/22 01:03:12;;;;;;;4.47;1.55;;;16.90;44.50;;;;;;5038074;28;20440;-58
2022/11/22 01:05:38;;;;;;;3.60;1.52;;;16.90;44.50;;;;;;5054960;28;20051;-59
2022/11/22 01:08:05;;;;;;;4.82;2.03;;;16.90;44.50;;;;;;5055890;28;20399;-56
2022/11/22 01:10:33;;;;;;;4.35;2.00;;;16.90;44.50;;;;;;5038111;28;20463;-56
2022/11/22 01:12:59;;;;;;;5.95;2.15;;;16.90;44.50;;;;;;5055759;28;20120;-56
2022/11/22 01:15:25;;;;;;;4.20;1.75;;;16.90;44.50;;;;;;5055788;28;20056;-57
2022/11/22 01:17:50;;;;;;;5.05;1.95;;;16.90;44.50;;;;;;5055257;28;20120;-56
2022/11/22 01:20:16;;;;;;;4.70;1.63;;;16.90;44.60;;;;;;5055692;28;20051;-59
2022/11/22 01:22:42;;;;;;;3.30;1.35;;;16.90;44.50;;;;;;5038107;28;20041;-58
2022/11/22 01:25:08;;;;;;;3.67;1.48;;;17.00;44.60;;;;;;5055342;28;20029;-59
2022/11/22 01:27:34;;;;;;;3.47;1.40;;;16.90;44.50;;;;;;5037703;28;20029;-56
2022/11/22 01:30:00;;;;;;;3.20;1.55;;;16.90;44.50;;;;;;5055409;28;20029;-56
2022/11/22 01:32:27;;;;;;;3.10;1.30;;;16.90;44.60;;;;;;5055134;28;20025;-57
2022/11/22 01:34:53;;;;;;;3.63;1.45;;;17.00;44.60;;;;;;5055000;28;20056;-59
2022/11/22 01:37:18;;;;;;;4.88;1.60;;;16.90;44.60;;;;;;5055495;28;20087;-57
2022/11/22 01:39:44;;;;;;;3.35;1.20;;;16.90;44.60;;;;;;5055313;28;20044;-59
2022/11/22 01:42:11;;;;;;;3.55;1.55;;;17.00;44.70;;;;;;5037771;28;20032;-56
2022/11/22 01:44:41;;;;;;;4.25;1.80;;;16.90;44.60;;;;;;5054928;28;20032;-56
2022/11/22 01:47:13;;;;;;;4.63;1.52;;;16.90;44.60;;;;;;5055366;28;20062;-57
2022/11/22 01:49:47;;;;;;;3.60;1.17;;;16.90;44.60;;;;;;5037376;28;20033;-55
2022/11/22 01:52:18;;;;;;;4.35;1.27;;;17.00;44.70;;;;;;5055123;28;20032;-56
2022/11/22 01:54:49;;;;;;;3.90;1.20;;;17.00;44.70;;;;;;5054813;28;20032;-58
2022/11/22 01:57:19;;;;;;;3.33;1.40;;;17.00;44.70;;;;;;5055130;28;20029;-58
2022/11/22 01:59:51;;;;;;;3.80;1.65;;;16.90;44.70;;;;;;5055201;28;20453;-58
2022/11/22 02:02:17;;;;;;;4.60;2.08;;;16.90;44.70;;;;;;5037741;28;20107;-59
2022/11/22 02:04:44;;;;;;;3.92;1.30;;;17.00;44.80;;;;;;5055194;28;20431;-57
2022/11/22 02:07:24;;;;;;;3.70;1.45;;;17.00;44.80;;;;;;5054599;28;20072;-59
2022/11/22 02:09:51;;;;;;;4.05;1.60;;;17.00;44.80;;;;;;5054849;28;20029;-58
2022/11/22 02:12:21;;;;;;;5.10;1.52;;;17.00;44.80;;;;;;5054602;28;20036;-57
2022/11/22 02:14:48;;;;;;;4.10;1.50;;;17.00;44.90;;;;;;5054129;28;20059;-57
2022/11/22 02:17:14;;;;;;;4.30;1.23;;;17.00;44.80;;;;;;5054426;28;20449;-58
2022/11/22 02:19:43;;;;;;;2.75;1.30;;;17.00;44.90;;;;;;5054472;28;20051;-59
2022/11/22 02:22:21;;;;;;;3.17;1.38;;;17.00;44.90;;;;;;5036672;28;20072;-58
2022/11/22 02:24:58;;;;;;;2.88;1.30;;;17.00;44.90;;;;;;5054443;28;20412;-59
2022/11/22 02:27:24;;;;;;;3.17;1.67;;;17.00;44.90;;;;;;5055130;28;20056;-60
2022/11/22 02:29:50;;;;;;;3.65;1.20;;;17.00;44.90;;;;;;5054796;28;20384;-58
2022/11/22 02:32:16;;;;;;;2.58;1.05;;;17.00;45.50;;;;;;5054146;28;20036;-57
2022/11/22 02:34:48;;;;;;;5.85;1.63;;;17.00;44.90;;;;;;5036865;28;20029;-56
2022/11/22 02:37:27;;;;;;;2.80;1.20;;;17.00;45.00;;;;;;5054631;28;20094;-56
2022/11/22 02:40:06;;;;;;;3.55;1.20;;;17.00;44.90;;;;;;5037116;28;20453;-58
2022/11/22 02:42:32;;;;;;;5.47;1.13;;;17.00;44.90;;;;;;5054564;28;20126;-57
2022/11/22 02:44:58;;;;;;;2.45;1.10;;;17.00;45.00;;;;;;5054389;28;20025;-56
2022/11/22 02:47:24;;;;;;;2.90;1.20;;;17.00;45.00;;;;;;5055169;28;20068;-58
2022/11/22 02:49:52;;;;;;;4.75;1.63;;;17.00;45.00;;;;;;5054893;28;20037;-54
2022/11/22 02:52:18;;;;;;;1.85;0.70;;;17.00;45.00;;;;;;5037375;28;20033;-57
2022/11/22 02:54:44;;;;;;;2.67;1.02;;;17.00;45.00;;;;;;5054507;28;20029;-58
2022/11/22 02:57:10;;;;;;;2.45;1.00;;;17.00;45.00;;;;;;5054402;28;20433;-58
2022/11/22 02:59:36;;;;;;;2.65;1.00;;;17.00;45.00;;;;;;5054137;28;20037;-58
2022/11/22 03:02:02;;;;;;;4.32;1.33;;;17.00;45.00;;;;;;5053997;28;20055;-55
2022/11/22 03:04:28;;;;;;;2.58;0.88;;;17.00;45.00;;;;;;5054114;28;20045;-57
2022/11/22 03:06:56;;;;;;;1.98;1.15;;;17.00;45.00;;;;;;5036979;28;20052;-57
2022/11/22 03:09:26;;;;;;;3.58;1.23;;;17.00;45.00;;;;;;5036840;28;20436;-58
2022/11/22 03:11:53;;;;;;;2.92;1.08;;;17.00;44.90;;;;;;5054080;28;20108;-57
2022/11/22 03:14:19;;;;;;;3.15;1.10;;;17.00;45.00;;;;;;5054248;28;20029;-56
2022/11/22 03:16:45;;;;;;;3.33;1.48;;;17.00;45.00;;;;;;5036462;28;20033;-59
2022/11/22 03:19:13;;;;;;;2.50;1.02;;;17.00;44.90;;;;;;5053982;28;20033;-57
2022/11/22 03:21:40;;;;;;;2.22;0.93;;;17.00;44.90;;;;;;5035981;28;20045;-54
2022/11/22 03:24:07;;;;;;;2.38;1.00;;;17.00;44.90;;;;;;5053998;28;20090;-58
2022/11/22 03:26:34;;;;;;;3.22;1.00;;;17.00;45.00;;;;;;5054001;28;20083;-60
2022/11/22 03:28:59;;;;;;;3.53;1.27;;;17.00;44.90;;;;;;5039701;28;20399;-58
2022/11/22 03:31:25;;;;;;;2.88;1.17;;;17.00;44.90;;;;;;5057669;28;20095;-56
2022/11/22 03:33:52;;;;;;;3.67;1.08;;;17.00;44.90;;;;;;5058144;28;20397;-58
2022/11/22 03:36:18;;;;;;;3.47;0.95;;;17.00;45.50;;;;;;5057399;28;20033;-58
2022/11/22 03:38:44;;;;;;;2.55;0.75;;;17.00;44.80;;;;;;5057604;28;20124;-59
2022/11/22 03:41:09;;;;;;;2.90;1.10;;;17.00;44.80;;;;;;5058197;28;20128;-58
2022/11/22 03:43:36;;;;;;;4.05;1.17;;;17.10;44.80;;;;;;5023216;28;20029;-56
2022/11/22 03:46:02;;;;;;;3.08;1.02;;;17.00;44.80;;;;;;5057366;28;20175;-57
2022/11/22 03:48:28;;;;;;;3.10;1.30;;;17.10;44.80;;;;;;5039764;28;20449;-59
2022/11/22 03:50:53;;;;;;;3.17;1.05;;;17.00;44.70;;;;;;5056993;28;20037;-57
2022/11/22 03:53:19;;;;;;;4.47;1.30;;;17.10;44.70;;;;;;5057168;28;20025;-59
2022/11/22 03:55:45;;;;;;;3.20;1.13;;;17.10;44.70;;;;;;5056703;28;20029;-56
2022/11/22 03:58:11;;;;;;;3.22;0.90;;;17.10;44.70;;;;;;5056725;28;20028;-58
2022/11/22 04:00:37;;;;;;;3.47;1.15;;;17.10;44.70;;;;;;5056905;28;20475;-57
2022/11/22 04:03:03;;;;;;;2.65;0.95;;;17.10;44.60;;;;;;5039466;28;20364;-55
2022/11/22 04:05:28;;;;;;;3.27;1.10;;;17.10;44.60;;;;;;5056704;28;20025;-56
2022/11/22 04:07:57;;;;;;;3.35;1.13;;;17.10;44.50;;;;;;5056749;28;20048;-57
2022/11/22 04:10:24;;;;;;;3.35;1.15;;;17.10;44.40;;;;;;5056471;28;20098;-55
2022/11/22 04:12:50;;;;;;;4.25;1.10;;;17.10;44.40;;;;;;5057143;28;20116;-58
2022/11/22 04:15:16;;;;;;;3.33;1.00;;;17.10;44.40;;;;;;5056654;28;20119;-55
2022/11/22 04:17:44;;;;;;;3.30;1.20;;;17.10;44.20;;;;;;5056641;28;20139;-57
2022/11/22 04:23:09;;;;;;;3.50;1.25;;;17.10;44.20;;;;;;5057118;28;20029;-56
2022/11/22 04:25:35;;;;;;;;;;;17.10;44.20;;;;;;5056837;28;20032;-53
2022/11/22 04:28:02;;;;;;;5.35;1.50;;;17.10;44.20;;;;;;5039068;28;19920;-56
2022/11/22 04:33:13;;;;;;;3.60;1.17;;;17.10;44.20;;;;;;5056914;28;20037;-57
2022/11/22 04:35:40;;;;;;;3.03;1.00;;;17.10;44.20;;;;;;5056863;28;20413;-57
2022/11/22 04:38:06;;;;;;;2.65;1.15;;;17.10;44.10;;;;;;5056431;28;20028;-54
2022/11/22 04:40:32;;;;;;;3.72;1.02;;;17.10;44.10;;;;;;5056116;28;20415;-57
2022/11/22 04:45:44;;;;;;;5.85;1.30;;;17.10;44.00;;;;;;5055808;28;20069;-57
2022/11/22 04:48:11;;;;;;;3.92;1.10;;;17.10;43.90;;;;;;5056603;28;20032;-59
2022/11/22 04:53:23;;;;;;;4.30;1.15;;;17.10;43.90;;;;;;5055726;28;20037;-55
2022/11/22 04:55:48;;;;;;;3.33;1.23;;;17.10;43.80;;;;;;5055667;28;20032;-60
2022/11/22 04:58:15;;;;;;;2.83;0.90;;;17.10;43.80;;;;;;5038303;28;20123;-58
2022/11/22 05:00:41;;;;;;;2.95;1.10;;;17.10;43.80;;;;;;5055536;28;20083;-57
2022/11/22 05:03:07;;;;;;;2.67;1.08;;;17.10;43.70;;;;;;5055328;28;20371;-56
2022/11/22 05:05:40;;;;;;;2.95;1.10;;;17.10;43.70;;;;;;5038603;28;20060;-55
2022/11/22 05:08:07;;;;;;;3.05;1.20;;;17.10;43.60;;;;;;5038123;28;20444;-59
2022/11/22 05:13:20;;;;;;;2.63;1.10;;;17.10;43.60;;;;;;5055325;28;20401;-59
2022/11/22 05:15:46;;;;;;;3.72;1.27;;;17.10;43.60;;;;;;5037668;28;20119;-58
2022/11/22 05:18:13;;;;;;;3.20;1.10;;;17.10;43.50;;;;;;5055383;28;20463;-58
2022/11/22 05:20:38;;;;;;;3.53;1.30;;;17.10;43.50;;;;;;5037643;28;20076;-58
2022/11/22 05:25:49;;;;;;;2.50;0.90;;;17.10;43.40;;;;;;5055446;28;20128;-56
2022/11/22 05:28:14;;;;;;;4.05;1.10;;;17.20;43.40;;;;;;5037595;28;20470;-54
2022/11/22 05:30:41;;;;;;;2.30;0.98;;;17.20;43.40;;;;;;5055285;28;20032;-59
2022/11/22 05:33:07;;;;;;;3.25;1.17;;;17.10;43.30;;;;;;5055194;28;20029;-57
2022/11/22 05:35:32;;;;;;;2.75;1.05;;;17.10;43.30;;;;;;5055477;28;20047;-55
2022/11/22 05:37:58;;;;;;;3.78;1.48;;;17.20;43.30;;;;;;5056353;28;20460;-57
2022/11/22 05:40:25;;;;;;;2.50;1.13;;;17.20;43.30;;;;;;5055199;28;20033;-59
2022/11/22 05:42:52;;;;;;;3.42;1.20;;;17.10;43.20;;;;;;5055651;28;20025;-57
2022/11/22 05:45:18;;;;;;;3.47;1.05;;;17.20;43.20;;;;;;5037136;28;20047;-57
2022/11/22 05:47:45;;;;;;;2.67;1.10;;;17.20;43.20;;;;;;5037019;28;20028;-56
2022/11/22 05:50:11;;;;;;;4.03;1.30;;;17.20;43.20;;;;;;5053983;28;20025;-57
2022/11/22 05:52:37;;;;;;;6.22;1.55;;;17.20;43.10;;;;;;5054794;28;20033;-55
2022/11/22 05:55:03;;;;;;;3.92;1.17;;;17.20;43.10;;;;;;5054889;28;20045;-57
2022/11/22 05:57:31;;;;;;;5.07;1.52;;;17.20;43.10;;;;;;5054951;28;20025;-56
2022/11/22 05:59:57;;;;;;;5.47;1.30;;;17.20;43.00;;;;;;5054592;28;20392;-59
2022/11/22 06:02:23;;;;;;;2.72;1.00;;;17.20;43.00;;;;;;5054710;28;20037;-57
2022/11/22 06:04:49;;;;;;;2.92;1.30;;;17.20;43.00;;;;;;5054919;28;20024;-58
2022/11/22 06:07:15;;;;;;;3.20;1.02;;;17.20;42.90;;;;;;5054347;28;20095;-59
2022/11/22 06:09:41;;;;;;;3.95;1.10;;;17.20;42.90;;;;;;5054605;28;20037;-57
2022/11/22 06:12:07;;;;;;;4.85;1.30;;;17.20;42.90;;;;;;5054561;28;20032;-57
2022/11/22 06:14:33;;;;;;;4.15;1.23;;;17.10;42.80;;;;;;5054589;28;20071;-56
2022/11/22 06:16:59;;;;;;;3.03;1.10;;;17.20;42.80;;;;;;5054646;28;20029;-58
2022/11/22 06:19:25;;;;;;;2.50;1.20;;;17.20;42.80;;;;;;5054633;28;20029;-55
2022/11/22 06:21:50;;;;;;;3.28;1.10;;;17.20;42.70;;;;;;5054203;28;20029;-56
2022/11/22 06:24:17;;;;;;;2.53;1.00;;;17.10;42.70;;;;;;5054885;28;20033;-58
2022/11/22 06:26:43;;;;;;;4.38;1.00;;;17.20;42.70;;;;;;5054163;28;20040;-60
2022/11/22 06:29:08;;;;;;;4.28;1.50;;;17.20;42.70;;;;;;5054199;28;20091;-58
2022/11/22 06:31:34;;;;;;;3.00;1.00;;;17.20;42.60;;;;;;5054406;28;20383;-57
2022/11/22 06:34:00;;;;;;;3.88;1.40;;;17.20;42.60;;;;;;5054809;28;20091;-57
2022/11/22 06:36:29;;;;;;;2.17;0.93;;;17.20;42.60;;;;;;5054527;28;20068;-57
2022/11/22 06:38:55;;;;;;;3.75;1.05;;;17.20;42.60;;;;;;5054667;28;20040;-58
2022/11/22 06:41:24;;;;;;;3.85;1.20;;;17.20;42.60;;;;;;5054349;28;20028;-59
2022/11/22 06:43:51;;;;;;;4.38;1.30;;;17.20;42.50;;;;;;5054480;28;20036;-58
2022/11/22 06:46:19;;;;;;;3.53;1.30;;;17.20;42.50;;;;;;5036779;28;20407;-59
2022/11/22 06:48:45;;;;;;;3.33;1.00;;;17.20;42.50;;;;;;5054277;28;20453;-59
2022/11/22 06:51:22;;;;;;;3.17;1.15;;;17.20;42.50;;;;;;5036535;28;20123;-58
2022/11/22 06:53:49;;;;;;;3.88;1.10;;;17.20;43.10;;;;;;5053893;28;20028;-59
2022/11/22 06:56:22;;;;;;;5.43;1.42;;;17.20;42.40;;;;;;5054083;28;20111;-56
2022/11/22 06:58:49;;;;;;;3.10;1.20;;;17.20;42.40;;;;;;5054055;28;20483;-58
2022/11/22 07:01:20;;;;;;;3.03;1.05;;;17.20;42.30;;;;;;5037528;28;20025;-54
2022/11/22 07:03:46;;;;;;;4.18;1.40;;;17.20;42.30;;;;;;5040602;28;20033;-59
2022/11/22 07:06:14;;;;;;;3.15;1.20;;;17.20;42.30;;;;;;5058275;28;20036;-56
2022/11/22 07:08:41;;;;;;;3.03;1.10;;;17.20;42.30;;;;;;5058077;28;20036;-57
2022/11/22 07:11:13;;;;;;;3.55;1.13;;;17.20;42.20;;;;;;5058045;28;20130;-57
2022/11/22 07:13:38;;;;;;;4.50;1.35;;;17.20;42.20;;;;;;5058297;28;20033;-59
2022/11/22 07:16:06;;;;;;;4.63;1.60;;;17.20;42.20;;;;;;5040282;28;20444;-56
2022/11/22 07:18:33;;;;;;;5.03;1.25;;;17.20;42.10;;;;;;5058072;28;20128;-56
2022/11/22 07:21:05;;;;;;;5.35;1.33;;;17.20;42.10;;;;;;5057586;28;20355;-57
2022/11/22 07:23:31;;;;;;;4.65;1.50;;;17.20;42.00;;;;;;5040037;28;20090;-59
2022/11/22 07:25:57;;;;;;;5.05;1.73;;;17.20;42.00;;;;;;5039874;28;20032;-59
2022/11/22 07:28:24;;;;;;;4.75;1.65;;;17.20;42.00;;;;;;5058116;28;20037;-59
2022/11/22 07:30:50;;;;;;;6.47;1.50;;;17.20;42.00;;;;;;5057298;28;20108;-58
2022/11/22 07:33:16;;;;;;;4.32;1.40;;;17.20;42.00;;;;;;5057799;28;20419;-58
2022/11/22 07:35:42;;;;;;;4.63;1.58;;;17.20;42.00;;;;;;5057879;28;20037;-59
2022/11/22 07:38:07;;;;;;;3.67;1.50;;;17.20;41.90;;;;;;5039572;28;20033;-57
2022/11/22 07:40:33;;;;;;;4.10;1.40;;;17.20;41.90;;;;;;5040103;28;20040;-57
2022/11/22 07:42:59;;;;;;;6.05;1.90;;;17.20;41.90;;;;;;5039742;28;20021;-57
2022/11/22 07:45:25;;;;;;;5.82;1.63;;;17.30;41.90;;;;;;5039749;28;20044;-56
2022/11/22 07:47:51;;;;;;;5.45;1.73;;;17.30;41.90;;;;;;5057186;28;20079;-56
2022/11/22 07:50:16;;;;;;;4.32;1.65;;;17.20;41.90;;;;;;5057096;28;20040;-59
2022/11/22 07:52:42;;;;;;;4.07;1.50;;;17.30;41.90;;;;;;5056943;28;20048;-56
2022/11/22 07:55:08;;;;;;;3.58;1.48;;;17.30;41.90;;;;;;5057232;28;20125;-59
2022/11/22 07:57:34;;;;;;;3.22;1.38;;;17.20;41.90;;;;;;5056739;28;20460;-59
2022/11/22 08:00:00;;;;;;;5.38;1.27;;;17.20;41.90;;;;;;5039417;28;20033;-55
2022/11/22 08:02:26;;;;;;;4.03;1.35;;;17.30;41.90;;;;;;5057044;28;20035;-59
2022/11/22 08:04:52;;;;;;;2.78;1.42;;;17.20;41.90;;;;;;5057839;28;20039;-59
2022/11/22 08:07:18;;;;;;;4.28;1.30;;;17.30;41.90;;;;;;5039328;28;20122;-58
2022/11/22 08:09:44;;;;;;;3.58;1.05;;;17.30;41.90;;;;;;5039389;28;20075;-60
2022/11/22 08:12:10;;;;;;;4.07;1.40;;;17.30;41.90;;;;;;5056767;28;20025;-58
2022/11/22 08:14:36;;;;;;;3.95;1.23;;;17.20;41.90;;;;;;5056177;28;20033;-58
2022/11/22 08:17:02;;;;;;;3.17;1.20;;;17.20;41.80;;;;;;5056718;28;20417;-58
2022/11/22 08:19:29;;;;;;;4.47;1.48;;;17.20;41.80;;;;;;5038918;28;20045;-59
2022/11/22 08:21:55;;;;;;;5.75;1.08;;;17.20;41.80;;;;;;5038691;28;20043;-58
2022/11/22 08:24:21;;;;;;;2.83;1.10;;;17.20;41.80;;;;;;5038727;28;20036;-58
2022/11/22 08:26:47;;;;;;;4.35;1.60;;;17.20;41.80;;;;;;5056525;28;20108;-58
2022/11/22 08:29:12;;;;;;;5.72;1.80;;;17.30;41.90;;;;;;5056481;28;20040;-59
2022/11/22 08:31:39;;;;;;;3.45;1.30;;;17.20;41.80;;;;;;5056460;28;20032;-57
2022/11/22 08:34:05;;;;;;;2.50;1.02;;;17.20;42.40;;;;;;5056323;28;20045;-59
2022/11/22 08:36:31;;;;;;;3.80;1.20;;;17.30;41.80;;;;;;5056190;28;20074;-59
2022/11/22 08:38:57;;;;;;;4.90;1.45;;;17.30;41.80;;;;;;5056488;28;20071;-59
2022/11/22 08:41:24;;;;;;;2.80;1.00;;;17.30;41.80;;;;;;5055855;28;20021;-58
2022/11/22 08:43:51;;;;;;;4.07;1.23;;;17.20;41.80;;;;;;5038855;28;20097;-59
2022/11/22 08:46:17;;;;;;;2.20;1.00;;;17.30;41.80;;;;;;5056404;28;20044;-59
2022/11/22 08:48:43;;;;;;;2.70;1.13;;;17.30;41.80;;;;;;5056049;28;20030;-57
2022/11/22 08:51:11;;;;;;;4.82;1.85;;;17.30;41.80;;;;;;5055769;28;20029;-60
2022/11/22 08:53:39;;;;;;;4.30;1.30;;;17.30;41.80;;;;;;5056055;28;20112;-59
2022/11/22 08:56:08;;;;;;;3.53;1.15;;;17.30;41.80;;;;;;5056605;28;20068;-59
2022/11/22 08:58:34;;;;;;;4.85;1.42;;;17.30;41.80;;;;;;5038377;28;20410;-57
2022/11/22 09:01:15;;;;;;;4.40;1.40;;;17.30;41.80;;;;;;5056092;28;20052;-59
2022/11/22 09:03:42;;;;;;;3.67;1.10;;;17.30;41.80;;;;;;5055535;28;20480;-58
2022/11/22 09:06:17;;;;;;;3.53;1.30;;;17.30;41.80;;;;;;5056191;28;20039;-58
2022/11/22 09:08:43;;;;;;;3.75;1.27;;;17.30;41.80;;;;;;5038499;28;20474;-59
2022/11/22 09:11:12;;;;;;;4.82;1.20;;;17.30;41.80;;;;;;5038275;28;20068;-58
2022/11/22 09:13:38;;;;;;;3.63;0.95;;;17.30;41.80;;;;;;5055072;28;20047;-57
2022/11/22 09:16:11;;;;;;;2.78;0.90;;;17.30;41.80;;;;;;5038435;28;20037;-59
2022/11/22 09:18:37;;;;;;;5.22;1.23;;;17.30;41.80;;;;;;5055369;28;20144;-59
2022/11/22 09:21:05;;;;;;;2.97;1.17;;;17.30;41.70;;;;;;5055783;28;20112;-59
2022/11/22 09:23:31;;;;;;;2.95;0.93;;;17.30;41.80;;;;;;5055329;28;20060;-59
2022/11/22 09:26:01;;;;;;;3.35;1.00;;;17.30;41.70;;;;;;5036674;28;20056;-59
2022/11/22 09:28:27;;;;;;;3.28;1.30;;;17.40;41.80;;;;;;5055143;28;20363;-54
2022/11/22 09:31:03;;;;;;;3.60;1.17;;;17.30;41.70;;;;;;5037676;28;20036;-59
2022/11/22 09:33:29;;;;;;;4.15;1.02;;;17.30;41.70;;;;;;5055680;28;20036;-58
2022/11/22 09:36:09;;;;;;;2.58;0.95;;;17.30;41.70;;;;;;5055338;28;20044;-57
2022/11/22 09:38:36;;;;;;;3.30;1.10;;;17.30;41.70;;;;;;5055070;28;20029;-55
2022/11/22 09:41:16;;;;;;;3.53;1.10;;;17.30;41.60;;;;;;5054853;28;20483;-56
2022/11/22 09:43:55;;;;;;;2.47;0.90;;;17.30;41.70;;;;;;5037584;28;20419;-56
2022/11/22 09:46:44;;;;;;;3.50;1.20;;;17.40;41.70;;;;;;5055251;28;20036;-58
2022/11/22 09:49:25;;;;;;;3.40;1.17;;;17.30;41.70;;;;;;5037227;28;20055;-57
2022/11/22 09:52:23;;;;;;;3.67;1.05;;;17.30;41.70;;;;;;5054993;28;20104;-56
2022/11/22 09:54:56;;;;;;;3.65;0.90;;;17.30;41.70;;;;;;5024238;28;20357;-56
2022/11/22 09:57:30;;;;;;;2.30;0.88;;;17.30;41.60;;;;;;5037337;28;20064;-58
2022/11/22 10:00:18;;;;;;;2.92;1.00;;;17.30;41.70;;;;;;5054799;28;20044;-59
2022/11/22 10:03:35;;;;;;;2.55;0.85;;;17.30;41.60;;;;;;5054583;28;20379;-59
2022/11/22 10:06:10;;;;;;;3.25;1.10;;;17.30;41.60;;;;;;5037140;28;20140;-58
2022/11/22 10:08:51;;;;;;;3.15;0.73;;;17.30;41.60;;;;;;5054710;28;20036;-60
2022/11/22 10:11:37;;;;;;;3.80;1.27;;;17.30;41.60;;;;;;5054912;28;20032;-59
2022/11/22 10:14:35;;;;;;;3.25;1.25;;;17.30;41.70;;;;;;5054201;28;20037;-56
2022/11/22 10:17:31;;;;;;;4.78;1.00;;;17.40;41.70;;;;;;5020739;28;20452;-58
2022/11/22 10:20:21;;;;;;;5.40;0.98;;;17.40;41.70;;;;;;5037568;28;20033;-55
2022/11/22 10:22:47;;;;;;;2.20;0.98;;;17.30;41.60;;;;;;5054571;28;20029;-57
2022/11/22 10:25:24;;;;;;;4.05;1.15;;;17.30;41.60;;;;;;5054682;28;20095;-54
2022/11/22 10:27:59;;;;;;;3.58;1.00;;;17.40;41.70;;;;;;5054649;28;20044;-58
2022/11/22 10:30:24;;;;;;;3.25;0.90;;;17.30;41.60;;;;;;5054437;28;20116;-58
2022/11/22 10:33:17;;;;;;;2.30;0.82;;;17.30;41.60;;;;;;5054402;28;20120;-56
2022/11/22 10:36:04;;;;;;;1.98;0.80;;;17.40;41.70;;;;;;5054664;28;20102;-58
2022/11/22 10:38:56;;;;;;;1.85;0.77;;;17.30;41.60;;;;;;5058415;28;20048;-55
2022/11/22 10:41:44;;;;;;;2.78;0.88;;;17.40;41.70;;;;;;5040868;28;20044;-58
2022/11/22 10:44:17;;;;;;;2.58;0.90;;;17.40;41.70;;;;;;5040744;28;20044;-59
2022/11/22 10:46:52;;;;;;;2.80;0.80;;;17.40;41.70;;;;;;5058766;28;20029;-57
2022/11/22 10:49:24;;;;;;;1.85;0.68;;;17.40;41.70;;;;;;5040706;28;20051;-55
2022/11/22 10:52:03;;;;;;;3.45;1.10;;;17.40;41.70;;;;;;5058165;28;20033;-55
2022/11/22 10:54:47;;;;;;;2.00;0.90;;;17.40;41.70;;;;;;5058282;28;20055;-56
2022/11/22 10:57:36;;;;;;;3.20;0.90;;;17.40;41.70;;;;;;5058313;28;20032;-56
2022/11/22 11:00:05;;;;;;;3.03;0.98;;;17.40;41.70;;;;;;5039739;28;20120;-55
2022/11/22 11:03:06;;;;;;;1.73;0.90;;;17.40;41.70;;;;;;5040399;28;20035;-57
2022/11/22 11:05:50;;;;;;;2.55;0.90;;;17.30;41.70;;;;;;5023166;28;20053;-56
2022/11/22 11:08:25;;;;;;;3.72;1.17;;;17.30;41.70;;;;;;5058092;28;20044;-52
2022/11/22 11:10:51;;;;;;;1.90;0.80;;;17.30;41.80;;;;;;5058306;28;20367;-56
2022/11/22 11:13:27;;;;;;;1.95;0.77;;;17.30;41.90;;;;;;5057834;28;20029;-57
2022/11/22 11:15:56;;;;;;;2.90;0.70;;;17.30;42.00;;;;;;5058368;28;20025;-58
2022/11/22 11:18:53;;;;;;;2.35;0.80;;;17.30;41.90;;;;;;5036496;28;20132;-57
2022/11/22 11:21:19;;;;;;;2.25;0.80;;;17.40;41.90;;;;;;5037570;28;20429;-56
2022/11/22 11:23:44;;;;;;;1.35;0.73;;;17.30;41.90;;;;;;5037949;28;20044;-58
2022/11/22 11:26:22;;;;;;;0.95;0.50;;;17.30;41.90;;;;;;5037600;28;20091;-57
2022/11/22 11:28:48;;;;;;;2.15;0.70;;;17.40;41.90;;;;;;5037811;28;20425;-58
2022/11/22 11:31:17;;;;;;;1.50;0.63;;;17.40;41.90;;;;;;5037433;28;20025;-60
2022/11/22 11:33:44;;;;;;;2.15;0.80;;;17.40;42.00;;;;;;5037453;28;20037;-57
2022/11/22 11:36:20;;;;;;;3.70;0.80;;;17.40;42.60;;;;;;5037529;28;20116;-59
2022/11/22 11:38:51;;;;;;;1.83;0.80;;;17.40;41.90;;;;;;5037679;28;20039;-57
2022/11/22 11:41:22;;;;;;;5.00;0.95;;;17.40;41.90;;;;;;5037500;28;20053;-59
2022/11/22 11:43:53;;;;;;;1.58;0.50;;;17.40;41.90;;;;;;5037457;28;20033;-57
2022/11/22 11:46:23;;;;;;;2.15;0.70;;;17.40;41.90;;;;;;5037546;28;20041;-60
2022/11/22 11:48:54;;;;;;;1.48;0.50;;;17.40;41.90;;;;;;5018541;28;20025;-57
2022/11/22 11:51:30;;;;;;;1.52;0.65;;;17.40;41.90;;;;;;5036888;28;20041;-57
2022/11/22 11:54:02;;;;;;;1.55;0.50;;;17.40;41.90;;;;;;5036235;28;20021;-55
2022/11/22 11:56:33;;;;;;;1.73;0.50;;;17.40;41.80;;;;;;5038078;28;20036;-57
2022/11/22 11:59:05;;;;;;;1.42;0.50;;;17.40;41.80;;;;;;5036850;28;20560;-59
2022/11/22 12:01:34;;;;;;;1.42;0.50;;;17.40;41.70;;;;;;5037584;28;20048;-56
2022/11/22 12:04:06;;;;;;;1.85;0.65;;;17.40;41.70;;;;;;5037105;28;20348;-58
2022/11/22 12:06:33;;;;;;;1.73;0.60;;;17.40;41.70;;;;;;5035910;28;20457;-58
2022/11/22 12:09:00;;;;;;;0.90;0.43;;;17.40;41.70;;;;;;5036644;28;20065;-59
2022/11/22 12:11:37;;;;;;;2.03;0.50;;;17.40;41.70;;;;;;5036893;28;20087;-57
2022/11/22 12:14:08;;;;;;;2.03;0.70;;;17.40;41.70;;;;;;5037081;28;20566;-58
2022/11/22 12:16:49;;;;;;;1.33;0.52;;;17.40;41.70;;;;;;5037322;28;20048;-58
2022/11/22 12:19:43;;;;;;;2.55;0.73;;;17.40;41.70;;;;;;5053689;28;20057;-57
2022/11/22 12:22:20;;;;;;;3.13;0.80;;;17.40;41.70;;;;;;5056608;28;20032;-58
2022/11/22 12:25:15;;;;;;;1.30;0.50;;;17.40;41.70;;;;;;5057313;28;20057;-57
2022/11/22 12:27:41;;;;;;;2.03;0.50;;;17.40;41.60;;;;;;5038848;28;20467;-54
2022/11/22 12:30:13;;;;;;;1.08;0.50;;;17.40;41.60;;;;;;5056467;28;20033;-58
2022/11/22 12:32:57;;;;;;;2.53;0.50;;;17.40;41.60;;;;;;5038853;28;20094;-58
2022/11/22 12:35:25;;;;;;;0.95;0.45;;;17.40;41.60;;;;;;5038999;28;20037;-58
2022/11/22 12:37:55;;;;;;;0.93;0.40;;;17.40;41.60;;;;;;5038879;28;20451;-59
2022/11/22 12:40:30;;;;;;;1.75;0.68;;;17.40;41.60;;;;;;5055983;28;20029;-60
2022/11/22 12:43:02;;;;;;;1.38;0.70;;;17.40;41.60;;;;;;5056269;28;20146;-55
2022/11/22 12:45:31;;;;;;;2.33;0.65;;;17.40;41.60;;;;;;5056157;28;20043;-58
2022/11/22 12:48:03;;;;;;;1.50;0.55;;;17.40;41.50;;;;;;5038584;28;20102;-57
2022/11/22 12:50:38;;;;;;;0.68;0.40;;;17.40;41.50;;;;;;5056828;28;20040;-59
2022/11/22 12:53:13;;;;;;;2.08;0.63;;;17.40;41.50;;;;;;5056060;28;20329;-57
2022/11/22 12:56:08;;;;;;;0.77;0.40;;;17.40;41.50;;;;;;5056382;28;20037;-57
2022/11/22 12:58:40;;;;;;;1.40;0.40;;;17.40;41.50;;;;;;5056015;28;20040;-58
2022/11/22 13:01:33;;;;;;;1.48;0.63;;;17.40;41.50;;;;;;5055593;28;20032;-57
2022/11/22 13:04:09;;;;;;;1.67;0.52;;;17.40;41.50;;;;;;5055888;28;20033;-57
2022/11/22 13:06:50;;;;;;;1.08;0.40;;;17.40;41.50;;;;;;5038266;28;20060;-58
2022/11/22 13:09:32;;;;;;;1.02;0.50;;;17.40;41.50;;;;;;5055961;28;20333;-58
2022/11/22 13:12:11;;;;;;;1.08;0.47;;;17.40;41.50;;;;;;5038259;28;20037;-57
2022/11/22 13:14:54;;;;;;;1.00;0.35;;;17.40;41.50;;;;;;5038002;28;20039;-59
2022/11/22 13:17:23;;;;;;;1.52;0.60;;;17.40;41.50;;;;;;5056378;28;20115;-58
2022/11/22 13:20:21;;;;;;;1.60;0.57;;;17.40;41.50;;;;;;5055428;28;20068;-60